sensor_id;sensor_type;location;lat;lon;timestamp;pressure;altitude;pressure_sealevel;temperature;humidity
71149;BME280;59072;42.144;25.200;2023-04-25T00:01:45;99409.69;;;13.22;100.00
71149;BME280;59072;42.144;25.200;2023-04-25T00:04:11;99407.25;;;13.21;100.00
71149;BME280;59072;42.144;25.200;2023-04-25T00:06:36;99396.56;;;13.21;100.00
71149;BME280;59072;42.144;25.200;2023-04-25T00:09:03;99393.22;;;13.31;100.00
71149;BME280;59072;42.144;25.200;2023-04-25T00:11:32;99380.38;;;13.33;100.00
71149;BME280;59072;42.144;25.200;2023-04-25T00:13:57;99379.75;;;13.53;100.00
71149;BME280;59072;42.144;25.200;2023-04-25T00:16:25;99366.56;;;13.19;100.00
71149;BME280;59072;42.144;25.200;2023-04-25T00:18:50;99381.34;;;13.26;100.00
71149;BME280;59072;42.144;25.200;2023-04-25T00:21:19;99367.41;;;13.52;100.00
71149;BME280;59072;42.144;25.200;2023-04-25T00:23:45;99365.22;;;13.81;100.00
71149;BME280;59072;42.144;25.200;2023-04-25T00:26:11;99354.06;;;13.94;100.00
71149;BME280;59072;42.144;25.200;2023-04-25T00:28:37;99357.00;;;13.93;100.00
71149;BME280;59072;42.144;25.200;2023-04-25T00:31:03;99353.13;;;13.73;100.00
71149;BME280;59072;42.144;25.200;2023-04-25T00:33:29;99343.91;;;14.01;100.00
71149;BME280;59072;42.144;25.200;2023-04-25T00:35:55;99350.97;;;14.13;100.00
71149;BME280;59072;42.144;25.200;2023-04-25T00:38:21;99335.06;;;14.01;100.00
71149;BME280;59072;42.144;25.200;2023-04-25T00:40:46;99332.72;;;14.15;100.00
71149;BME280;59072;42.144;25.200;2023-04-25T00:43:11;99334.25;;;14.00;100.00
71149;BME280;59072;42.144;25.200;2023-04-25T00:45:38;99323.28;;;13.59;100.00
71149;BME280;59072;42.144;25.200;2023-04-25T00:48:04;99332.84;;;13.50;100.00
71149;BME280;59072;42.144;25.200;2023-04-25T00:50:30;99327.06;;;13.63;100.00
71149;BME280;59072;42.144;25.200;2023-04-25T00:52:55;99321.84;;;13.84;100.00
71149;BME280;59072;42.144;25.200;2023-04-25T00:55:21;99311.53;;;13.65;100.00
71149;BME280;59072;42.144;25.200;2023-04-25T00:57:47;99319.03;;;13.69;100.00
71149;BME280;59072;42.144;25.200;2023-04-25T01:00:13;99303.09;;;13.89;100.00
71149;BME280;59072;42.144;25.200;2023-04-25T01:02:40;99308.22;;;13.53;100.00
71149;BME280;59072;42.144;25.200;2023-04-25T01:05:07;99317.28;;;13.47;100.00
71149;BME280;59072;42.144;25.200;2023-04-25T01:07:33;99313.47;;;13.38;100.00
71149;BME280;59072;42.144;25.200;2023-04-25T01:09:59;99315.53;;;13.63;100.00
71149;BME280;59072;42.144;25.200;2023-04-25T01:12:24;99321.53;;;13.43;100.00
71149;BME280;59072;42.144;25.200;2023-04-25T01:14:50;99321.25;;;13.39;100.00
71149;BME280;59072;42.144;25.200;2023-04-25T01:17:16;99317.78;;;13.44;100.00
71149;BME280;59072;42.144;25.200;2023-04-25T01:19:42;99303.91;;;13.52;100.00
71149;BME280;59072;42.144;25.200;2023-04-25T01:22:08;99315.31;;;13.32;100.00
71149;BME280;59072;42.144;25.200;2023-04-25T01:24:36;99303.31;;;13.13;100.00
71149;BME280;59072;42.144;25.200;2023-04-25T01:27:02;99306.56;;;13.47;100.00
71149;BME280;59072;42.144;25.200;2023-04-25T01:29:28;99294.78;;;13.48;100.00
71149;BME280;59072;42.144;25.200;2023-04-25T01:31:54;99293.97;;;13.15;100.00
71149;BME280;59072;42.144;25.200;2023-04-25T01:34:20;99303.88;;;12.88;100.00
71149;BME280;59072;42.144;25.200;2023-04-25T01:36:49;99295.91;;;12.93;100.00
71149;BME280;59072;42.144;25.200;2023-04-25T01:39:15;99288.09;;;13.18;100.00
71149;BME280;59072;42.144;25.200;2023-04-25T01:41:40;99290.81;;;13.23;100.00
71149;BME280;59072;42.144;25.200;2023-04-25T01:44:06;99277.16;;;13.20;100.00
71149;BME280;59072;42.144;25.200;2023-04-25T01:46:33;99275.38;;;13.31;100.00
71149;BME280;59072;42.144;25.200;2023-04-25T01:48:58;99265.06;;;13.44;100.00
71149;BME280;59072;42.144;25.200;2023-04-25T01:51:24;99274.19;;;13.49;100.00
71149;BME280;59072;42.144;25.200;2023-04-25T01:53:50;99270.66;;;13.43;100.00
71149;BME280;59072;42.144;25.200;2023-04-25T01:56:17;99275.75;;;13.44;100.00
71149;BME280;59072;42.144;25.200;2023-04-25T01:58:43;99278.38;;;13.39;100.00
71149;BME280;59072;42.144;25.200;2023-04-25T02:01:08;99269.72;;;13.64;100.00
71149;BME280;59072;42.144;25.200;2023-04-25T02:03:34;99266.78;;;13.66;100.00
71149;BME280;59072;42.144;25.200;2023-04-25T02:06:00;99268.06;;;13.58;100.00
71149;BME280;59072;42.144;25.200;2023-04-25T02:08:25;99277.66;;;13.49;100.00
71149;BME280;59072;42.144;25.200;2023-04-25T02:10:52;99274.44;;;13.47;100.00
71149;BME280;59072;42.144;25.200;2023-04-25T02:13:17;99261.03;;;13.47;100.00
71149;BME280;59072;42.144;25.200;2023-04-25T02:15:43;99277.06;;;13.42;100.00
71149;BME280;59072;42.144;25.200;2023-04-25T02:18:08;99280.44;;;13.00;100.00
71149;BME280;59072;42.144;25.200;2023-04-25T02:20:35;99281.19;;;12.68;100.00
71149;BME280;59072;42.144;25.200;2023-04-25T02:23:01;99268.44;;;12.75;100.00
71149;BME280;59072;42.144;25.200;2023-04-25T02:25:27;99288.22;;;12.74;100.00
71149;BME280;59072;42.144;25.200;2023-04-25T02:27:52;99276.88;;;12.62;100.00
71149;BME280;59072;42.144;25.200;2023-04-25T02:30:19;99271.09;;;13.02;100.00
71149;BME280;59072;42.144;25.200;2023-04-25T02:32:45;99271.25;;;13.18;100.00
71149;BME280;59072;42.144;25.200;2023-04-25T02:35:10;99271.25;;;13.18;100.00
71149;BME280;59072;42.144;25.200;2023-04-25T02:37:37;99263.13;;;13.40;100.00
71149;BME280;59072;42.144;25.200;2023-04-25T02:40:03;99251.47;;;13.24;100.00
71149;BME280;59072;42.144;25.200;2023-04-25T02:42:29;99251.41;;;13.14;100.00
71149;BME280;59072;42.144;25.200;2023-04-25T02:44:55;99274.31;;;13.32;100.00
71149;BME280;59072;42.144;25.200;2023-04-25T02:47:20;99271.50;;;13.16;100.00
71149;BME280;59072;42.144;25.200;2023-04-25T02:49:46;99279.59;;;13.26;100.00
71149;BME280;59072;42.144;25.200;2023-04-25T02:52:11;99291.88;;;13.22;100.00
71149;BME280;59072;42.144;25.200;2023-04-25T02:54:38;99278.97;;;13.14;100.00
71149;BME280;59072;42.144;25.200;2023-04-25T02:57:04;99290.06;;;13.28;100.00
71149;BME280;59072;42.144;25.200;2023-04-25T02:59:29;99275.91;;;13.00;100.00
71149;BME280;59072;42.144;25.200;2023-04-25T03:01:55;99263.81;;;12.65;100.00
71149;BME280;59072;42.144;25.200;2023-04-25T03:04:20;99281.03;;;13.07;100.00
71149;BME280;59072;42.144;25.200;2023-04-25T03:06:46;99288.31;;;12.84;100.00
71149;BME280;59072;42.144;25.200;2023-04-25T03:09:12;99288.63;;;12.61;100.00
71149;BME280;59072;42.144;25.200;2023-04-25T03:11:38;99297.91;;;12.80;100.00
71149;BME280;59072;42.144;25.200;2023-04-25T03:14:04;99287.72;;;13.04;100.00
71149;BME280;59072;42.144;25.200;2023-04-25T03:16:29;99285.50;;;12.96;100.00
71149;BME280;59072;42.144;25.200;2023-04-25T03:18:57;99274.38;;;13.10;100.00
71149;BME280;59072;42.144;25.200;2023-04-25T03:21:22;99276.41;;;12.97;100.00
71149;BME280;59072;42.144;25.200;2023-04-25T03:23:48;99270.13;;;12.81;100.00
71149;BME280;59072;42.144;25.200;2023-04-25T03:26:13;99269.94;;;12.66;100.00
71149;BME280;59072;42.144;25.200;2023-04-25T03:28:39;99283.38;;;12.98;100.00
71149;BME280;59072;42.144;25.200;2023-04-25T03:31:05;99286.69;;;13.11;100.00
71149;BME280;59072;42.144;25.200;2023-04-25T03:33:31;99285.06;;;13.10;100.00
71149;BME280;59072;42.144;25.200;2023-04-25T03:35:56;99291.75;;;13.07;100.00
71149;BME280;59072;42.144;25.200;2023-04-25T03:38:21;99293.19;;;12.88;100.00
71149;BME280;59072;42.144;25.200;2023-04-25T03:40:47;99281.72;;;12.65;100.00
71149;BME280;59072;42.144;25.200;2023-04-25T03:43:12;99291.03;;;12.62;100.00
71149;BME280;59072;42.144;25.200;2023-04-25T03:45:38;99291.66;;;12.70;100.00
71149;BME280;59072;42.144;25.200;2023-04-25T03:48:03;99292.06;;;12.83;100.00
71149;BME280;59072;42.144;25.200;2023-04-25T03:50:29;99276.72;;;12.74;100.00
71149;BME280;59072;42.144;25.200;2023-04-25T03:52:54;99292.84;;;13.11;100.00
71149;BME280;59072;42.144;25.200;2023-04-25T03:55:20;99289.63;;;13.09;100.00
71149;BME280;59072;42.144;25.200;2023-04-25T03:57:46;99268.13;;;12.99;100.00
71149;BME280;59072;42.144;25.200;2023-04-25T04:00:12;99294.50;;;13.17;100.00
71149;BME280;59072;42.144;25.200;2023-04-25T04:02:37;99298.91;;;13.29;100.00
71149;BME280;59072;42.144;25.200;2023-04-25T04:05:04;99290.81;;;13.23;100.00
71149;BME280;59072;42.144;25.200;2023-04-25T04:07:31;99296.81;;;13.31;100.00
71149;BME280;59072;42.144;25.200;2023-04-25T04:09:58;99279.75;;;13.42;100.00
71149;BME280;59072;42.144;25.200;2023-04-25T04:12:23;99265.66;;;13.24;100.00
71149;BME280;59072;42.144;25.200;2023-04-25T04:14:49;99279.56;;;13.21;100.00
71149;BME280;59072;42.144;25.200;2023-04-25T04:17:14;99279.16;;;13.35;100.00
71149;BME280;59072;42.144;25.200;2023-04-25T04:19:40;99281.38;;;13.43;100.00
71149;BME280;59072;42.144;25.200;2023-04-25T04:22:05;99274.13;;;13.43;100.00
71149;BME280;59072;42.144;25.200;2023-04-25T04:24:30;99280.03;;;13.40;100.00
71149;BME280;59072;42.144;25.200;2023-04-25T04:26:56;99295.66;;;13.26;100.00
71149;BME280;59072;42.144;25.200;2023-04-25T04:29:22;99291.88;;;13.22;100.00
71149;BME280;59072;42.144;25.200;2023-04-25T04:31:51;99292.97;;;12.94;100.00
71149;BME280;59072;42.144;25.200;2023-04-25T04:34:17;99297.09;;;12.53;100.00
71149;BME280;59072;42.144;25.200;2023-04-25T04:36:47;99291.19;;;12.51;100.00
71149;BME280;59072;42.144;25.200;2023-04-25T04:39:14;99291.66;;;12.70;100.00
71149;BME280;59072;42.144;25.200;2023-04-25T04:41:39;99286.72;;;12.83;100.00
71149;BME280;59072;42.144;25.200;2023-04-25T04:44:05;99291.06;;;12.90;100.00
71149;BME280;59072;42.144;25.200;2023-04-25T04:46:32;99277.94;;;12.88;100.00
71149;BME280;59072;42.144;25.200;2023-04-25T04:49:04;99290.63;;;13.03;100.00
71149;BME280;59072;42.144;25.200;2023-04-25T04:51:30;99288.50;;;13.05;100.00
71149;BME280;59072;42.144;25.200;2023-04-25T04:53:56;99293.25;;;13.57;100.00
71149;BME280;59072;42.144;25.200;2023-04-25T04:56:24;99285.78;;;13.64;100.00
71149;BME280;59072;42.144;25.200;2023-04-25T04:58:50;99287.25;;;13.82;100.00
71149;BME280;59072;42.144;25.200;2023-04-25T05:01:16;99298.81;;;13.88;100.00
71149;BME280;59072;42.144;25.200;2023-04-25T05:03:41;99301.06;;;13.64;100.00
71149;BME280;59072;42.144;25.200;2023-04-25T05:06:07;99286.66;;;13.33;100.00
71149;BME280;59072;42.144;25.200;2023-04-25T05:08:34;99300.91;;;13.43;100.00
71149;BME280;59072;42.144;25.200;2023-04-25T05:10:59;99293.97;;;13.85;100.00
71149;BME280;59072;42.144;25.200;2023-04-25T05:13:25;99284.38;;;13.94;100.00
71149;BME280;59072;42.144;25.200;2023-04-25T05:15:50;99285.72;;;13.54;100.00
71149;BME280;59072;42.144;25.200;2023-04-25T05:18:15;99295.00;;;13.41;100.00
71149;BME280;59072;42.144;25.200;2023-04-25T05:20:41;99299.59;;;13.46;100.00
71149;BME280;59072;42.144;25.200;2023-04-25T05:23:06;99295.78;;;13.74;100.00
71149;BME280;59072;42.144;25.200;2023-04-25T05:25:32;99298.75;;;13.83;100.00
71149;BME280;59072;42.144;25.200;2023-04-25T05:27:57;99290.19;;;13.81;100.00
71149;BME280;59072;42.144;25.200;2023-04-25T05:30:23;99302.16;;;14.16;100.00
71149;BME280;59072;42.144;25.200;2023-04-25T05:32:49;99301.91;;;13.70;100.00
71149;BME280;59072;42.144;25.200;2023-04-25T05:35:14;99298.88;;;14.03;100.00
71149;BME280;59072;42.144;25.200;2023-04-25T05:37:40;99292.06;;;14.38;100.00
71149;BME280;59072;42.144;25.200;2023-04-25T05:40:06;99292.53;;;14.20;100.00
71149;BME280;59072;42.144;25.200;2023-04-25T05:42:32;99290.13;;;13.71;100.00
71149;BME280;59072;42.144;25.200;2023-04-25T05:44:57;99295.34;;;13.50;100.00
71149;BME280;59072;42.144;25.200;2023-04-25T05:47:23;99280.81;;;13.41;100.00
71149;BME280;59072;42.144;25.200;2023-04-25T05:49:48;99291.31;;;13.48;100.00
71149;BME280;59072;42.144;25.200;2023-04-25T05:52:14;99289.00;;;13.66;100.00
71149;BME280;59072;42.144;25.200;2023-04-25T05:54:40;99287.94;;;14.10;100.00
71149;BME280;59072;42.144;25.200;2023-04-25T05:57:06;99278.03;;;14.16;100.00
71149;BME280;59072;42.144;25.200;2023-04-25T05:59:31;99287.69;;;14.17;100.00
71149;BME280;59072;42.144;25.200;2023-04-25T06:01:57;99275.94;;;14.23;100.00
71149;BME280;59072;42.144;25.200;2023-04-25T06:04:22;99288.06;;;14.41;100.00
71149;BME280;59072;42.144;25.200;2023-04-25T06:06:48;99285.88;;;14.33;100.00
71149;BME280;59072;42.144;25.200;2023-04-25T06:09:13;99280.25;;;14.29;100.00
71149;BME280;59072;42.144;25.200;2023-04-25T06:11:38;99288.28;;;14.34;100.00
71149;BME280;59072;42.144;25.200;2023-04-25T06:14:04;99288.97;;;14.62;100.00
71149;BME280;59072;42.144;25.200;2023-04-25T06:16:29;99291.41;;;14.89;100.00
71149;BME280;59072;42.144;25.200;2023-04-25T06:18:54;99286.06;;;14.94;100.00
71149;BME280;59072;42.144;25.200;2023-04-25T06:21:20;99280.44;;;14.96;100.00
71149;BME280;59072;42.144;25.200;2023-04-25T06:23:45;99282.88;;;15.13;100.00
71149;BME280;59072;42.144;25.200;2023-04-25T06:26:11;99285.81;;;14.96;100.00
71149;BME280;59072;42.144;25.200;2023-04-25T06:28:36;99288.44;;;14.70;100.00
71149;BME280;59072;42.144;25.200;2023-04-25T06:31:02;99283.63;;;14.82;100.00
71149;BME280;59072;42.144;25.200;2023-04-25T06:33:27;99276.69;;;15.02;100.00
71149;BME280;59072;42.144;25.200;2023-04-25T06:35:52;99266.44;;;14.68;100.00
71149;BME280;59072;42.144;25.200;2023-04-25T06:38:18;99277.22;;;14.99;100.00
71149;BME280;59072;42.144;25.200;2023-04-25T06:40:43;99269.41;;;14.87;100.00
71149;BME280;59072;42.144;25.200;2023-04-25T06:43:09;99285.81;;;15.06;100.00
71149;BME280;59072;42.144;25.200;2023-04-25T06:45:35;99283.41;;;15.15;100.00
71149;BME280;59072;42.144;25.200;2023-04-25T06:48:00;99289.59;;;15.31;100.00
71149;BME280;59072;42.144;25.200;2023-04-25T06:50:25;99277.75;;;15.47;100.00
71149;BME280;59072;42.144;25.200;2023-04-25T06:52:51;99266.75;;;15.43;100.00
71149;BME280;59072;42.144;25.200;2023-04-25T06:55:16;99272.88;;;15.64;100.00
71149;BME280;59072;42.144;25.200;2023-04-25T06:57:42;99275.56;;;15.70;100.00
71149;BME280;59072;42.144;25.200;2023-04-25T07:00:08;99272.63;;;15.81;100.00
71149;BME280;59072;42.144;25.200;2023-04-25T07:02:35;99276.69;;;15.74;100.00
71149;BME280;59072;42.144;25.200;2023-04-25T07:05:01;99271.84;;;15.50;100.00
71149;BME280;59072;42.144;25.200;2023-04-25T07:07:29;99263.44;;;15.93;100.00
71149;BME280;59072;42.144;25.200;2023-04-25T07:09:55;99258.94;;;15.78;100.00
71149;BME280;59072;42.144;25.200;2023-04-25T07:12:21;99260.00;;;15.77;100.00
71149;BME280;59072;42.144;25.200;2023-04-25T07:14:46;99249.25;;;15.77;100.00
71149;BME280;59072;42.144;25.200;2023-04-25T07:17:12;99252.44;;;15.89;100.00
71149;BME280;59072;42.144;25.200;2023-04-25T07:19:37;99238.94;;;16.04;100.00
71149;BME280;59072;42.144;25.200;2023-04-25T07:22:05;99245.28;;;16.24;100.00
71149;BME280;59072;42.144;25.200;2023-04-25T07:24:30;99257.53;;;16.51;100.00
71149;BME280;59072;42.144;25.200;2023-04-25T07:26:56;99255.88;;;16.60;100.00
71149;BME280;59072;42.144;25.200;2023-04-25T07:29:21;99265.69;;;16.90;100.00
71149;BME280;59072;42.144;25.200;2023-04-25T07:31:47;99242.38;;;16.65;100.00
71149;BME280;59072;42.144;25.200;2023-04-25T07:34:13;99260.94;;;17.11;99.70
71149;BME280;59072;42.144;25.200;2023-04-25T07:36:38;99262.31;;;17.09;98.99
71149;BME280;59072;42.144;25.200;2023-04-25T07:39:03;99273.53;;;17.50;95.18
71149;BME280;59072;42.144;25.200;2023-04-25T07:41:29;99264.94;;;17.48;97.06
71149;BME280;59072;42.144;25.200;2023-04-25T07:43:54;99260.03;;;17.79;92.31
71149;BME280;59072;42.144;25.200;2023-04-25T07:46:20;99264.91;;;18.06;94.86
71149;BME280;59072;42.144;25.200;2023-04-25T07:48:45;99259.06;;;17.70;98.09
71149;BME280;59072;42.144;25.200;2023-04-25T07:51:11;99265.50;;;17.74;100.00
71149;BME280;59072;42.144;25.200;2023-04-25T07:53:36;99266.50;;;18.07;92.47
71149;BME280;59072;42.144;25.200;2023-04-25T07:56:03;99267.75;;;18.15;91.41
71149;BME280;59072;42.144;25.200;2023-04-25T07:58:28;99247.75;;;17.68;91.91
71149;BME280;59072;42.144;25.200;2023-04-25T08:00:54;99257.06;;;18.29;89.50
71149;BME280;59072;42.144;25.200;2023-04-25T08:03:19;99246.44;;;18.57;93.82
71149;BME280;59072;42.144;25.200;2023-04-25T08:05:45;99250.50;;;18.73;92.02
71149;BME280;59072;42.144;25.200;2023-04-25T08:08:11;99238.13;;;18.72;92.90
71149;BME280;59072;42.144;25.200;2023-04-25T08:10:38;99243.00;;;18.70;96.07
71149;BME280;59072;42.144;25.200;2023-04-25T08:13:04;99246.84;;;18.88;89.24
71149;BME280;59072;42.144;25.200;2023-04-25T08:15:29;99250.69;;;19.01;89.86
71149;BME280;59072;42.144;25.200;2023-04-25T08:17:55;99245.44;;;18.91;87.75
71149;BME280;59072;42.144;25.200;2023-04-25T08:20:20;99248.69;;;19.06;91.94
71149;BME280;59072;42.144;25.200;2023-04-25T08:22:46;99246.88;;;18.64;88.14
71149;BME280;59072;42.144;25.200;2023-04-25T08:25:13;99243.41;;;18.82;87.02
71149;BME280;59072;42.144;25.200;2023-04-25T08:27:39;99244.66;;;19.04;85.88
71149;BME280;59072;42.144;25.200;2023-04-25T08:30:05;99241.78;;;19.00;84.75
71149;BME280;59072;42.144;25.200;2023-04-25T08:32:31;99240.09;;;19.18;80.94
71149;BME280;59072;42.144;25.200;2023-04-25T08:34:56;99244.50;;;19.14;81.62
71149;BME280;59072;42.144;25.200;2023-04-25T08:37:22;99238.38;;;19.41;83.65
71149;BME280;59072;42.144;25.200;2023-04-25T08:39:47;99234.56;;;19.42;82.59
71149;BME280;59072;42.144;25.200;2023-04-25T08:42:17;99234.50;;;19.15;85.85
71149;BME280;59072;42.144;25.200;2023-04-25T08:44:45;99235.88;;;19.45;87.75
71149;BME280;59072;42.144;25.200;2023-04-25T08:47:11;99250.38;;;20.10;84.63
71149;BME280;59072;42.144;25.200;2023-04-25T08:49:37;99241.44;;;19.81;80.15
71149;BME280;59072;42.144;25.200;2023-04-25T08:52:04;99255.59;;;19.78;76.84
71149;BME280;59072;42.144;25.200;2023-04-25T08:54:32;99250.00;;;19.42;80.83
71149;BME280;59072;42.144;25.200;2023-04-25T08:57:00;99234.03;;;20.15;78.00
71149;BME280;59072;42.144;25.200;2023-04-25T08:59:30;99249.78;;;19.85;79.92
71149;BME280;59072;42.144;25.200;2023-04-25T09:01:57;99247.25;;;19.75;76.91
71149;BME280;59072;42.144;25.200;2023-04-25T09:04:22;99228.19;;;20.35;70.83
71149;BME280;59072;42.144;25.200;2023-04-25T09:06:48;99238.75;;;20.59;75.01
71149;BME280;59072;42.144;25.200;2023-04-25T09:09:14;99246.31;;;20.85;78.97
71149;BME280;59072;42.144;25.200;2023-04-25T09:11:39;99243.16;;;20.69;69.99
71149;BME280;59072;42.144;25.200;2023-04-25T09:14:19;99243.31;;;20.86;71.59
71149;BME280;59072;42.144;25.200;2023-04-25T09:19:27;99251.19;;;20.74;68.75
71149;BME280;59072;42.144;25.200;2023-04-25T09:21:54;99236.59;;;20.34;68.98
71149;BME280;59072;42.144;25.200;2023-04-25T09:26:58;99221.50;;;19.77;78.52
71149;BME280;59072;42.144;25.200;2023-04-25T09:29:33;99220.38;;;20.06;70.62
71149;BME280;59072;42.144;25.200;2023-04-25T09:34:46;99213.72;;;19.76;70.77
71149;BME280;59072;42.144;25.200;2023-04-25T09:39:49;99210.88;;;20.59;69.86
71149;BME280;59072;42.144;25.200;2023-04-25T09:42:16;99225.06;;;20.78;67.42
71149;BME280;59072;42.144;25.200;2023-04-25T09:45:02;99215.97;;;20.97;62.12
71149;BME280;59072;42.144;25.200;2023-04-25T09:47:28;99213.84;;;20.71;64.43
71149;BME280;59072;42.144;25.200;2023-04-25T09:49:55;99223.91;;;20.57;62.66
71149;BME280;59072;42.144;25.200;2023-04-25T09:52:22;99204.03;;;20.25;67.21
71149;BME280;59072;42.144;25.200;2023-04-25T09:54:49;99199.78;;;19.96;65.35
71149;BME280;59072;42.144;25.200;2023-04-25T09:57:23;99184.50;;;20.14;69.95
71149;BME280;59072;42.144;25.200;2023-04-25T09:59:51;99205.97;;;20.11;66.83
71149;BME280;59072;42.144;25.200;2023-04-25T10:02:18;99201.56;;;20.15;65.96
71149;BME280;59072;42.144;25.200;2023-04-25T10:04:52;99175.16;;;20.20;67.09
71149;BME280;59072;42.144;25.200;2023-04-25T10:07:21;99195.22;;;20.56;62.80
71149;BME280;59072;42.144;25.200;2023-04-25T10:09:58;99185.94;;;20.34;67.64
71149;BME280;59072;42.144;25.200;2023-04-25T10:12:26;99183.00;;;20.58;67.96
71149;BME280;59072;42.144;25.200;2023-04-25T10:14:52;99188.31;;;20.50;64.86
71149;BME280;59072;42.144;25.200;2023-04-25T10:17:19;99178.69;;;20.21;65.02
71149;BME280;59072;42.144;25.200;2023-04-25T10:19:46;99169.84;;;20.29;65.86
71149;BME280;59072;42.144;25.200;2023-04-25T10:22:20;99146.91;;;20.13;71.48
71149;BME280;59072;42.144;25.200;2023-04-25T10:24:49;99146.53;;;20.05;64.81
71149;BME280;59072;42.144;25.200;2023-04-25T10:27:16;99169.28;;;20.04;65.14
71149;BME280;59072;42.144;25.200;2023-04-25T10:29:42;99175.84;;;20.26;65.75
71149;BME280;59072;42.144;25.200;2023-04-25T10:32:10;99171.59;;;20.47;63.49
71149;BME280;59072;42.144;25.200;2023-04-25T10:37:05;99159.75;;;21.82;61.05
71149;BME280;59072;42.144;25.200;2023-04-25T10:39:33;99154.75;;;21.76;60.11
71149;BME280;59072;42.144;25.200;2023-04-25T10:42:01;99162.72;;;22.56;61.49
71149;BME280;59072;42.144;25.200;2023-04-25T10:44:31;99169.91;;;22.34;59.38
71149;BME280;59072;42.144;25.200;2023-04-25T10:46:58;99140.69;;;21.56;57.74
71149;BME280;59072;42.144;25.200;2023-04-25T10:49:32;99143.38;;;21.48;62.99
71149;BME280;59072;42.144;25.200;2023-04-25T10:52:30;99150.59;;;20.76;60.45
71149;BME280;59072;42.144;25.200;2023-04-25T10:54:58;99145.25;;;20.84;60.74
71149;BME280;59072;42.144;25.200;2023-04-25T11:00:00;99139.53;;;21.17;57.17
71149;BME280;59072;42.144;25.200;2023-04-25T11:02:27;99138.56;;;21.13;56.20
71149;BME280;59072;42.144;25.200;2023-04-25T11:04:54;99129.88;;;21.34;55.05
71149;BME280;59072;42.144;25.200;2023-04-25T11:07:37;99114.75;;;21.99;56.95
71149;BME280;59072;42.144;25.200;2023-04-25T11:10:03;99114.06;;;21.76;54.01
71149;BME280;59072;42.144;25.200;2023-04-25T11:12:30;99123.00;;;21.76;54.26
71149;BME280;59072;42.144;25.200;2023-04-25T11:15:04;99127.59;;;21.58;56.16
71149;BME280;59072;42.144;25.200;2023-04-25T11:17:30;99122.47;;;21.48;55.02
71149;BME280;59072;42.144;25.200;2023-04-25T11:19:56;99131.59;;;21.21;56.79
71149;BME280;59072;42.144;25.200;2023-04-25T11:22:22;99106.50;;;21.15;60.74
71149;BME280;59072;42.144;25.200;2023-04-25T11:24:48;99123.34;;;20.72;60.55
71149;BME280;59072;42.144;25.200;2023-04-25T11:27:13;99111.31;;;20.19;60.54
71149;BME280;59072;42.144;25.200;2023-04-25T11:29:40;99114.59;;;20.75;62.21
71149;BME280;59072;42.144;25.200;2023-04-25T11:32:06;99085.44;;;21.52;57.08
71149;BME280;59072;42.144;25.200;2023-04-25T11:34:32;99095.13;;;22.28;55.35
71149;BME280;59072;42.144;25.200;2023-04-25T11:36:59;99096.56;;;22.25;53.12
71149;BME280;59072;42.144;25.200;2023-04-25T11:39:26;99076.88;;;22.02;55.89
71149;BME280;59072;42.144;25.200;2023-04-25T11:41:53;99080.22;;;22.17;54.22
71149;BME280;59072;42.144;25.200;2023-04-25T11:44:19;99076.22;;;21.71;54.67
71149;BME280;59072;42.144;25.200;2023-04-25T11:46:46;99069.84;;;22.19;53.22
71149;BME280;59072;42.144;25.200;2023-04-25T11:49:12;99067.03;;;22.24;51.18
71149;BME280;59072;42.144;25.200;2023-04-25T11:51:39;99057.63;;;22.77;48.00
71149;BME280;59072;42.144;25.200;2023-04-25T11:54:05;99059.28;;;22.61;48.70
71149;BME280;59072;42.144;25.200;2023-04-25T11:56:31;99049.22;;;22.53;49.97
71149;BME280;59072;42.144;25.200;2023-04-25T12:01:28;99039.16;;;23.39;45.99
71149;BME280;59072;42.144;25.200;2023-04-25T12:03:53;99024.31;;;23.57;48.23
71149;BME280;59072;42.144;25.200;2023-04-25T12:06:19;99023.59;;;23.18;49.39
71149;BME280;59072;42.144;25.200;2023-04-25T12:09:04;99007.88;;;23.75;47.88
71149;BME280;59072;42.144;25.200;2023-04-25T12:11:35;99011.06;;;23.77;46.18
71149;BME280;59072;42.144;25.200;2023-04-25T12:14:05;99013.59;;;24.03;44.03
71149;BME280;59072;42.144;25.200;2023-04-25T12:16:41;99017.00;;;24.45;41.90
71149;BME280;59072;42.144;25.200;2023-04-25T12:19:07;99007.00;;;25.32;41.14
71149;BME280;59072;42.144;25.200;2023-04-25T12:21:33;99007.34;;;24.94;39.08
71149;BME280;59072;42.144;25.200;2023-04-25T12:29:23;99000.09;;;24.40;42.17
71149;BME280;59072;42.144;25.200;2023-04-25T12:31:50;98995.47;;;24.53;38.39
71149;BME280;59072;42.144;25.200;2023-04-25T12:34:20;98987.19;;;25.48;39.53
71149;BME280;59072;42.144;25.200;2023-04-25T12:36:47;99001.88;;;25.43;37.20
71149;BME280;59072;42.144;25.200;2023-04-25T12:39:20;98980.75;;;25.28;36.25
71149;BME280;59072;42.144;25.200;2023-04-25T12:41:47;99001.13;;;25.71;36.77
71149;BME280;59072;42.144;25.200;2023-04-25T12:44:13;98997.63;;;25.98;34.62
71149;BME280;59072;42.144;25.200;2023-04-25T12:46:39;99004.13;;;26.22;34.90
71149;BME280;59072;42.144;25.200;2023-04-25T12:49:07;99004.38;;;26.61;34.46
71149;BME280;59072;42.144;25.200;2023-04-25T12:51:34;98997.31;;;26.60;33.73
71149;BME280;59072;42.144;25.200;2023-04-25T12:54:00;98988.09;;;27.32;34.22
71149;BME280;59072;42.144;25.200;2023-04-25T12:56:27;98998.66;;;26.98;32.04
71149;BME280;59072;42.144;25.200;2023-04-25T12:58:53;98997.47;;;27.31;32.08
71149;BME280;59072;42.144;25.200;2023-04-25T13:01:19;98992.09;;;27.89;31.90
71149;BME280;59072;42.144;25.200;2023-04-25T13:03:45;98988.97;;;27.36;32.04